Time;durP1;ratioP1;P1;durP2;ratioP2;P2;SDS_P1;SDS_P2;PMS_P1;PMS_P2;Temp;Humidity;BMP_temperature;BMP_pressure;BME280_temperature;BME280_humidity;BME280_pressure;Samples;Min_cycle;Max_cycle;Signal;HPM_P1;HPM_P2
2021/03/14 00:00:11;;;;;;;1999.90;999.90;;;6.00;99.90;;;;;;4999341;28;20300;-68
2021/03/14 00:02:38;;;;;;;1999.90;999.90;;;6.00;99.90;;;;;;5001268;28;20048;-69
2021/03/14 00:05:05;;;;;;;1999.90;999.90;;;6.00;99.90;;;;;;5006668;28;20496;-68
2021/03/14 00:07:31;;;;;;;1999.90;999.90;;;6.00;99.90;;;;;;5005854;28;20053;-68
2021/03/14 00:09:57;;;;;;;1999.90;999.90;;;6.00;99.90;;;;;;5003573;28;20046;-69
2021/03/14 00:12:24;;;;;;;1999.90;999.90;;;6.00;99.90;;;;;;5004275;28;20141;-68
2021/03/14 00:14:50;;;;;;;1999.90;999.90;;;6.00;99.90;;;;;;5006382;28;20437;-68
2021/03/14 00:17:17;;;;;;;1999.90;999.90;;;6.10;99.90;;;;;;4997760;28;20082;-68
2021/03/14 00:19:43;;;;;;;1999.90;999.90;;;6.10;99.90;;;;;;5003173;28;20045;-69
2021/03/14 00:22:09;;;;;;;1999.90;999.90;;;6.10;99.90;;;;;;5002142;28;20049;-68
2021/03/14 00:24:36;;;;;;;1999.90;999.90;;;6.10;99.90;;;;;;5003737;28;20050;-68
2021/03/14 00:27:02;;;;;;;1999.90;999.90;;;6.10;99.90;;;;;;5002146;28;20493;-68
2021/03/14 00:29:29;;;;;;;1999.90;999.90;;;6.10;99.90;;;;;;5000421;28;20046;-68
2021/03/14 00:31:55;;;;;;;1999.90;999.90;;;6.10;99.90;;;;;;5004005;28;20042;-68
2021/03/14 00:34:21;;;;;;;1999.90;999.90;;;6.10;99.90;;;;;;4999970;28;20045;-68
2021/03/14 00:36:48;;;;;;;1999.90;999.90;;;6.10;99.90;;;;;;5004060;28;20602;-68
2021/03/14 00:39:15;;;;;;;1999.90;999.90;;;6.10;99.90;;;;;;5003807;28;20038;-68
2021/03/14 00:41:41;;;;;;;1999.90;999.90;;;6.20;99.90;;;;;;5004703;28;20493;-69
2021/03/14 00:44:07;;;;;;;1999.90;999.90;;;6.20;99.90;;;;;;5004619;28;20073;-68
2021/03/14 00:46:33;;;;;;;1999.90;999.90;;;6.20;99.90;;;;;;5003417;28;20115;-68
2021/03/14 00:49:00;;;;;;;1999.90;999.90;;;6.20;99.90;;;;;;5003213;28;20567;-68
2021/03/14 00:51:26;;;;;;;1999.90;999.90;;;6.20;99.90;;;;;;5003831;28;20090;-68
2021/03/14 00:53:53;;;;;;;1999.90;999.90;;;6.20;99.90;;;;;;5004860;28;20064;-68
2021/03/14 00:56:19;;;;;;;1999.90;999.90;;;6.20;99.90;;;;;;5004514;28;20079;-68
2021/03/14 00:58:46;;;;;;;1999.90;999.90;;;6.20;99.90;;;;;;5003628;28;20426;-68
2021/03/14 01:01:12;;;;;;;1999.90;999.90;;;6.20;99.90;;;;;;5002346;28;20042;-68
2021/03/14 01:03:38;;;;;;;1999.90;999.90;;;6.20;99.90;;;;;;4995609;28;20185;-69
2021/03/14 01:06:05;;;;;;;1999.90;999.90;;;6.20;99.90;;;;;;5106058;27;20053;-68
2021/03/14 01:08:31;;;;;;;1999.90;999.90;;;6.20;99.90;;;;;;5001127;28;20049;-68
2021/03/14 01:10:58;;;;;;;1999.90;999.90;;;6.20;99.90;;;;;;5103087;27;20054;-68
2021/03/14 01:13:24;;;;;;;1999.90;999.90;;;6.20;99.90;;;;;;5006884;28;20050;-68
2021/03/14 01:15:51;;;;;;;1999.90;999.90;;;6.20;99.90;;;;;;5007407;28;20149;-68
2021/03/14 01:18:17;;;;;;;1999.90;999.90;;;6.20;99.90;;;;;;5006857;28;20046;-69
2021/03/14 01:20:43;;;;;;;1999.90;999.90;;;6.20;99.90;;;;;;5007031;28;20050;-68
2021/03/14 01:23:09;;;;;;;1999.90;999.90;;;6.20;99.90;;;;;;5007095;28;20071;-68
2021/03/14 01:25:36;;;;;;;1999.90;999.90;;;6.20;99.90;;;;;;5007294;28;20054;-68
2021/03/14 01:28:03;;;;;;;1999.90;999.90;;;6.20;99.90;;;;;;5006521;28;20046;-68
2021/03/14 01:30:29;;;;;;;1999.90;999.90;;;6.20;99.90;;;;;;5000581;28;21055;-69
2021/03/14 01:32:55;;;;;;;1999.90;999.90;;;6.20;99.90;;;;;;5002592;28;20050;-68
2021/03/14 01:35:22;;;;;;;1999.90;999.90;;;6.30;99.90;;;;;;5004710;28;20045;-68
2021/03/14 01:37:48;;;;;;;1999.90;999.90;;;6.30;99.90;;;;;;5007323;28;20541;-68
2021/03/14 01:40:17;;;;;;;1999.90;999.90;;;6.30;99.90;;;;;;5004440;28;20537;-68
2021/03/14 01:42:45;;;;;;;1999.90;999.90;;;6.30;99.90;;;;;;5001683;28;20098;-69
2021/03/14 01:45:13;;;;;;;1999.90;999.90;;;6.30;99.90;;;;;;5004304;28;20053;-68
2021/03/14 01:47:42;;;;;;;1999.90;999.90;;;6.30;99.90;;;;;;5005749;28;20046;-68
2021/03/14 01:50:12;;;;;;;1999.90;999.90;;;6.30;99.90;;;;;;4999406;28;20137;-68
2021/03/14 01:52:39;;;;;;;1999.90;999.90;;;6.30;99.90;;;;;;5004082;28;20138;-68
2021/03/14 01:55:07;;;;;;;1999.90;999.90;;;6.30;99.90;;;;;;5001762;28;20064;-68
2021/03/14 01:57:34;;;;;;;1999.90;999.90;;;6.30;99.90;;;;;;5009556;28;20130;-68
2021/03/14 02:00:03;;;;;;;1999.90;999.90;;;6.20;99.90;;;;;;5045049;28;20074;-68
2021/03/14 02:02:29;;;;;;;1999.90;999.90;;;6.20;99.90;;;;;;5005813;28;20046;-68
2021/03/14 02:04:55;;;;;;;1999.90;999.90;;;6.20;99.90;;;;;;5008105;28;20068;-68
2021/03/14 02:07:22;;;;;;;1999.90;999.90;;;6.20;99.90;;;;;;5006958;28;20054;-68
2021/03/14 02:09:49;;;;;;;1999.90;999.90;;;6.10;99.90;;;;;;5004384;28;20156;-69
2021/03/14 02:12:19;;;;;;;1999.90;999.90;;;6.10;99.90;;;;;;5000846;28;20485;-67
2021/03/14 02:14:46;;;;;;;1999.90;999.90;;;6.10;99.90;;;;;;5005450;28;20141;-68
2021/03/14 02:17:16;;;;;;;1999.90;999.90;;;6.10;99.90;;;;;;5000981;28;20049;-68
2021/03/14 02:20:00;;;;;;;1999.90;999.90;;;6.10;99.90;;;;;;5002160;28;20049;-68
2021/03/14 02:22:28;;;;;;;1999.90;999.90;;;6.10;99.90;;;;;;5005359;28;20046;-68
2021/03/14 02:24:59;;;;;;;1999.90;999.90;;;6.10;99.90;;;;;;5005908;28;20133;-68
2021/03/14 02:27:25;;;;;;;1999.90;999.90;;;6.10;99.90;;;;;;5001880;28;20451;-69
2021/03/14 02:29:53;;;;;;;1999.90;999.90;;;6.10;99.90;;;;;;5005522;28;20067;-68
2021/03/14 02:32:21;;;;;;;1999.90;999.90;;;6.10;99.90;;;;;;5005658;28;20041;-68
2021/03/14 02:34:55;;;;;;;1999.90;999.90;;;6.10;99.90;;;;;;5008723;28;20049;-68
2021/03/14 02:37:23;;;;;;;1999.90;999.90;;;6.10;99.90;;;;;;5001446;28;20085;-69
2021/03/14 02:39:52;;;;;;;1999.90;999.90;;;6.10;99.90;;;;;;5004998;28;20046;-69
2021/03/14 02:42:19;;;;;;;1999.90;999.90;;;6.00;99.90;;;;;;5002337;28;20060;-68
2021/03/14 02:44:49;;;;;;;1999.90;999.90;;;6.00;99.90;;;;;;5006148;28;20102;-69
2021/03/14 02:47:21;;;;;;;1999.90;999.90;;;6.00;99.90;;;;;;5006915;28;20054;-68
2021/03/14 02:50:01;;;;;;;1999.90;999.90;;;5.90;99.90;;;;;;5089426;27;20081;-69
2021/03/14 02:52:28;;;;;;;1999.90;999.90;;;5.90;99.90;;;;;;5096380;27;20054;-68
2021/03/14 02:54:55;;;;;;;1999.90;999.90;;;5.90;99.90;;;;;;5002186;28;20056;-68
2021/03/14 02:57:23;;;;;;;1999.90;999.90;;;5.90;99.90;;;;;;5004557;28;20420;-69
2021/03/14 02:59:51;;;;;;;1999.90;999.90;;;5.90;99.90;;;;;;5005287;28;20100;-69
2021/03/14 03:02:18;;;;;;;1999.90;999.90;;;5.80;99.90;;;;;;5095140;27;20075;-68
2021/03/14 03:04:48;;;;;;;1999.90;999.90;;;5.80;99.90;;;;;;5002532;28;20558;-68
2021/03/14 03:07:15;;;;;;;;;;;5.80;99.90;;;;;;5004699;28;20129;-68
2021/03/14 03:09:45;;;;;;;1999.90;999.90;;;5.70;99.90;;;;;;5004457;28;20313;-69
2021/03/14 03:12:12;;;;;;;1999.90;999.90;;;5.70;99.90;;;;;;5004879;28;20052;-69
2021/03/14 03:14:41;;;;;;;1999.90;999.90;;;5.70;99.90;;;;;;5005595;28;20133;-69
2021/03/14 03:17:08;;;;;;;1999.90;999.90;;;5.70;99.90;;;;;;5004938;28;20050;-68
2021/03/14 03:19:35;;;;;;;1999.90;999.90;;;5.70;99.90;;;;;;5005500;28;20055;-69
2021/03/14 03:22:02;;;;;;;1999.90;999.90;;;5.70;99.90;;;;;;5004293;28;20065;-68
2021/03/14 03:24:28;;;;;;;1999.90;999.90;;;5.70;99.90;;;;;;5003506;28;20511;-68
2021/03/14 03:38:16;;;;;;;1999.90;999.90;;;5.60;99.90;;;;;;5004160;28;20041;-69
2021/03/14 03:40:42;;;;;;;1999.90;999.90;;;5.60;99.90;;;;;;5003683;28;20434;-68
2021/03/14 03:43:09;;;;;;;1999.90;999.90;;;5.60;99.90;;;;;;5001757;28;20045;-69
2021/03/14 03:45:42;;;;;;;1999.90;999.90;;;5.60;99.90;;;;;;5004737;28;20257;-68
2021/03/14 03:48:13;;;;;;;1999.90;999.90;;;5.60;99.90;;;;;;5000241;28;20133;-68
2021/03/14 03:50:52;;;;;;;1999.90;999.90;;;5.60;99.90;;;;;;5001979;28;20439;-68
2021/03/14 03:53:19;;;;;;;1999.90;999.90;;;5.60;99.90;;;;;;5000476;28;20172;-68
2021/03/14 03:55:46;;;;;;;1999.90;999.90;;;5.60;99.90;;;;;;5003206;28;20396;-68
2021/03/14 03:58:13;;;;;;;1999.90;999.90;;;5.70;99.90;;;;;;5001728;28;20077;-68
2021/03/14 04:00:40;;;;;;;1999.90;999.90;;;5.70;99.90;;;;;;5003600;28;20042;-68
2021/03/14 04:03:08;;;;;;;1999.90;999.90;;;5.70;99.90;;;;;;5003985;28;20164;-68
2021/03/14 04:05:35;;;;;;;1999.90;999.90;;;5.70;99.90;;;;;;5005014;28;20140;-69
2021/03/14 04:08:02;;;;;;;1999.90;999.90;;;5.70;99.90;;;;;;5004422;28;20060;-69
2021/03/14 04:10:29;;;;;;;1999.90;999.90;;;5.70;99.90;;;;;;5092349;27;20141;-69
2021/03/14 04:12:57;;;;;;;1999.90;999.90;;;5.70;99.90;;;;;;5001698;28;20085;-69
2021/03/14 04:15:26;;;;;;;1999.90;999.90;;;5.80;99.90;;;;;;4994104;28;20136;-68
2021/03/14 04:17:54;;;;;;;1999.90;999.90;;;5.80;99.90;;;;;;5009578;28;20041;-69
2021/03/14 04:20:26;;;;;;;1999.90;999.90;;;5.80;99.90;;;;;;5004463;28;20042;-68
2021/03/14 04:22:55;;;;;;;1999.90;999.90;;;5.80;99.90;;;;;;5000570;28;20049;-69
2021/03/14 04:25:24;;;;;;;1999.90;999.90;;;5.80;99.90;;;;;;5002509;28;20058;-68
2021/03/14 04:27:52;;;;;;;1999.90;999.90;;;5.80;99.90;;;;;;5005755;28;20042;-68
2021/03/14 04:30:21;;;;;;;1999.90;999.90;;;5.80;99.90;;;;;;5002382;28;20544;-68
2021/03/14 04:32:48;;;;;;;1999.90;999.90;;;5.80;99.90;;;;;;5006769;28;20636;-69
2021/03/14 04:35:17;;;;;;;1999.90;999.90;;;5.80;99.90;;;;;;5019771;28;20046;-68
2021/03/14 04:37:43;;;;;;;1999.90;999.90;;;5.80;99.90;;;;;;5001457;28;20133;-69
2021/03/14 04:40:12;;;;;;;1999.90;999.90;;;5.80;99.90;;;;;;5018556;28;20036;-69
2021/03/14 04:42:41;;;;;;;1999.90;999.90;;;5.80;99.90;;;;;;4998369;28;20137;-68
2021/03/14 04:45:08;;;;;;;;;;;5.80;99.90;;;;;;5006883;28;20046;-68
2021/03/14 04:47:34;;;;;;;1999.90;999.90;;;5.80;99.90;;;;;;5002961;28;19929;-68
2021/03/14 04:50:04;;;;;;;1999.90;999.90;;;5.70;99.90;;;;;;5004694;28;20173;-68
2021/03/14 04:52:31;;;;;;;1999.90;999.90;;;5.60;99.90;;;;;;5003473;28;20064;-68
2021/03/14 04:54:58;;;;;;;1999.90;999.90;;;5.50;99.90;;;;;;4999892;28;20422;-67
2021/03/14 04:57:24;;;;;;;1999.90;999.90;;;5.40;99.90;;;;;;5006137;28;20038;-68
2021/03/14 04:59:52;;;;;;;1999.90;999.90;;;5.20;99.90;;;;;;5007215;28;20112;-68
2021/03/14 05:02:20;;;;;;;1999.90;999.90;;;5.20;99.90;;;;;;5002961;28;20149;-68
2021/03/14 05:04:51;;;;;;;1999.90;999.90;;;5.10;99.90;;;;;;5005955;28;20494;-68
2021/03/14 05:07:20;;;;;;;1999.90;999.90;;;5.10;99.90;;;;;;5006583;28;20073;-68
2021/03/14 05:09:47;;;;;;;1999.90;999.90;;;5.00;99.90;;;;;;4999624;28;20408;-68
2021/03/14 05:12:13;;;;;;;1999.90;999.90;;;5.00;99.90;;;;;;5005113;28;20064;-68
2021/03/14 05:14:40;;;;;;;1999.90;999.90;;;5.00;99.90;;;;;;5004277;28;20056;-69
2021/03/14 05:17:07;;;;;;;1999.90;999.90;;;5.00;99.90;;;;;;5002932;28;20126;-68
2021/03/14 05:19:34;;;;;;;1999.90;999.90;;;5.00;99.90;;;;;;5001748;28;20061;-68
2021/03/14 05:22:01;;;;;;;1999.90;999.90;;;5.00;99.90;;;;;;5001970;28;20161;-68
2021/03/14 05:24:29;;;;;;;1999.90;999.90;;;5.00;99.90;;;;;;5006760;28;20459;-68
2021/03/14 05:26:57;;;;;;;1999.90;999.90;;;5.00;99.90;;;;;;5000482;28;20142;-68
2021/03/14 05:29:25;;;;;;;1999.90;999.90;;;5.00;99.90;;;;;;5004067;28;20065;-68
2021/03/14 05:31:54;;;;;;;1999.90;999.90;;;5.00;99.90;;;;;;5003518;28;20110;-68
2021/03/14 05:34:21;;;;;;;1999.90;999.90;;;5.00;99.90;;;;;;5000918;28;20467;-68
2021/03/14 05:36:47;;;;;;;1999.90;999.90;;;5.00;99.90;;;;;;5003957;28;20130;-68
2021/03/14 05:39:14;;;;;;;1999.90;999.90;;;5.00;99.90;;;;;;5004124;28;20044;-68
2021/03/14 05:41:41;;;;;;;1999.90;999.90;;;4.90;99.90;;;;;;5000872;28;20095;-68
2021/03/14 05:44:08;;;;;;;1999.90;999.90;;;4.90;99.90;;;;;;5012392;28;20065;-68
2021/03/14 05:46:35;;;;;;;1999.90;999.90;;;4.90;99.90;;;;;;5001681;28;20599;-68
2021/03/14 05:49:04;;;;;;;1999.90;999.90;;;4.80;99.90;;;;;;5003340;28;20132;-68
2021/03/14 05:51:33;;;;;;;1999.90;999.90;;;4.80;99.90;;;;;;5002542;28;20133;-68
2021/03/14 05:54:00;;;;;;;1999.90;999.90;;;4.90;99.90;;;;;;5005237;28;20152;-68
2021/03/14 05:56:27;;;;;;;1999.90;999.90;;;4.90;99.90;;;;;;5003622;28;20130;-68
2021/03/14 05:58:55;;;;;;;1999.90;999.90;;;4.90;99.90;;;;;;5006621;28;20057;-69
2021/03/14 06:01:28;;;;;;;1999.90;999.90;;;4.90;99.90;;;;;;5004813;28;20537;-68
2021/03/14 06:03:56;;;;;;;1999.90;999.90;;;4.90;99.90;;;;;;5003551;28;20049;-68
2021/03/14 06:06:23;;;;;;;1999.90;999.90;;;4.90;99.90;;;;;;5002681;28;20064;-69
2021/03/14 06:08:52;;;;;;;1999.90;999.90;;;4.90;99.90;;;;;;5004583;28;20477;-69
2021/03/14 06:11:19;;;;;;;1999.90;999.90;;;4.90;99.90;;;;;;5003774;28;20457;-68
2021/03/14 06:13:47;;;;;;;1999.90;999.90;;;5.00;99.90;;;;;;5002751;28;20464;-69
2021/03/14 06:19:54;;;;;;;1999.90;999.90;;;5.00;99.90;;;;;;5003107;28;20045;-68
2021/03/14 06:22:38;;;;;;;1999.90;999.90;;;5.00;99.90;;;;;;5003678;28;20046;-69
2021/03/14 06:25:06;;;;;;;1999.90;999.90;;;5.00;99.90;;;;;;5001722;28;20068;-69
2021/03/14 06:27:37;;;;;;;1999.90;999.90;;;5.10;99.90;;;;;;5000139;28;20077;-68
2021/03/14 06:30:16;;;;;;;1999.90;999.90;;;5.10;99.90;;;;;;5002697;28;20079;-68
2021/03/14 06:33:00;;;;;;;1999.90;999.90;;;5.10;99.90;;;;;;5000240;28;20046;-69
2021/03/14 06:35:40;;;;;;;1999.90;999.90;;;5.20;99.90;;;;;;5005685;28;20142;-69
2021/03/14 06:38:21;;;;;;;1999.90;999.90;;;5.20;99.90;;;;;;5004984;28;20590;-69
2021/03/14 06:40:49;;;;;;;1999.90;999.90;;;5.20;99.90;;;;;;5002106;28;20392;-69
2021/03/14 06:43:16;;;;;;;1999.90;999.90;;;5.30;99.90;;;;;;4996612;28;20515;-69
2021/03/14 06:45:44;;;;;;;1999.90;999.90;;;5.30;99.90;;;;;;4999946;28;20095;-69
2021/03/14 06:48:10;;;;;;;1999.90;999.90;;;5.30;99.90;;;;;;4997613;28;20046;-68
2021/03/14 06:50:41;;;;;;;1999.90;999.90;;;5.30;99.90;;;;;;5001471;28;20050;-69
2021/03/14 06:53:08;;;;;;;1999.90;999.90;;;5.40;99.90;;;;;;4999001;28;20050;-68
2021/03/14 06:55:36;;;;;;;1999.90;999.90;;;5.40;99.90;;;;;;5002378;28;20178;-67
2021/03/14 06:58:22;;;;;;;1999.90;999.90;;;5.40;99.90;;;;;;5001046;28;20565;-68
2021/03/14 07:01:26;;;;;;;1999.90;999.90;;;5.40;99.90;;;;;;5001455;28;20574;-68
2021/03/14 07:03:55;;;;;;;1999.90;999.90;;;5.50;99.90;;;;;;5042692;28;20049;-69
2021/03/14 07:06:22;;;;;;;1999.90;999.90;;;5.50;99.90;;;;;;5043777;28;20107;-69
2021/03/14 07:08:57;;;;;;;1999.90;999.90;;;5.50;99.90;;;;;;5024902;28;20140;-69
2021/03/14 07:11:38;;;;;;;1999.90;999.90;;;5.60;99.90;;;;;;4998890;28;20074;-69
2021/03/14 07:14:16;;;;;;;1999.90;999.90;;;5.60;99.90;;;;;;5002089;28;20448;-69
2021/03/14 07:16:55;;;;;;;1999.90;999.90;;;5.70;99.90;;;;;;5005650;28;21181;-68
2021/03/14 07:19:30;;;;;;;1999.90;999.90;;;5.70;99.90;;;;;;4998212;28;20120;-68
2021/03/14 07:22:10;;;;;;;1999.90;999.90;;;5.80;99.90;;;;;;5002015;28;20041;-69
2021/03/14 07:24:39;;;;;;;1999.90;999.90;;;5.80;99.90;;;;;;4995937;28;20109;-69
2021/03/14 07:27:10;;;;;;;1999.90;999.90;;;5.90;99.90;;;;;;5002641;28;20057;-68
2021/03/14 07:29:39;;;;;;;1999.90;999.90;;;6.00;99.90;;;;;;4997151;28;20054;-69
2021/03/14 07:32:07;;;;;;;1999.90;999.90;;;6.00;99.90;;;;;;5006767;28;20132;-69
2021/03/14 07:34:34;;;;;;;1999.90;999.90;;;6.10;99.90;;;;;;5001800;28;20481;-69
2021/03/14 07:37:01;;;;;;;1999.90;999.90;;;6.10;99.90;;;;;;5013600;28;20081;-69
2021/03/14 07:39:28;;;;;;;1999.90;999.90;;;6.10;99.90;;;;;;4997076;28;20099;-69
2021/03/14 07:41:54;;;;;;;1999.90;999.90;;;6.10;99.90;;;;;;4992333;28;20050;-69
2021/03/14 07:44:24;;;;;;;1999.90;999.90;;;6.10;99.90;;;;;;4997907;28;20060;-69
2021/03/14 07:46:53;;;;;;;1999.90;999.90;;;6.20;99.90;;;;;;4986830;28;20049;-69
2021/03/14 07:49:21;;;;;;;;;;;6.20;99.90;;;;;;4993917;28;20070;-69
2021/03/14 07:52:18;;;;;;;1999.90;999.90;;;6.20;99.90;;;;;;4993633;28;19945;-69
2021/03/14 07:54:49;;;;;;;1999.90;999.90;;;6.30;99.90;;;;;;5003880;28;20488;-69
2021/03/14 07:57:20;;;;;;;1999.90;999.90;;;6.30;99.90;;;;;;4993986;28;20052;-69
2021/03/14 07:59:47;;;;;;;1999.90;999.90;;;6.40;99.90;;;;;;4995728;28;20480;-69
2021/03/14 08:02:19;;;;;;;1999.90;999.90;;;6.40;99.90;;;;;;5002204;28;20433;-69
2021/03/14 08:04:46;;;;;;;1999.90;999.90;;;6.40;99.90;;;;;;5000287;28;20045;-69
2021/03/14 08:07:13;;;;;;;1999.90;999.90;;;6.50;99.90;;;;;;4997055;28;20062;-69
2021/03/14 08:09:45;;;;;;;1999.90;999.90;;;6.60;99.90;;;;;;4995078;28;20054;-69
2021/03/14 08:12:18;;;;;;;1999.90;999.90;;;6.60;99.90;;;;;;5094412;27;20158;-68
2021/03/14 08:14:48;;;;;;;1999.90;999.90;;;6.60;99.90;;;;;;4990768;28;20045;-69
2021/03/14 08:17:22;;;;;;;1999.90;999.90;;;6.60;99.90;;;;;;4990047;28;20187;-69
2021/03/14 08:19:51;;;;;;;1999.90;999.90;;;6.60;99.90;;;;;;4997073;28;20046;-69
2021/03/14 08:22:39;;;;;;;1999.90;999.90;;;6.60;99.90;;;;;;4992511;28;20116;-69
2021/03/14 08:25:38;;;;;;;1999.90;999.90;;;6.70;99.90;;;;;;4996620;28;20050;-69
2021/03/14 08:28:22;;;;;;;;;;;6.70;99.90;;;;;;5090734;27;20315;-69
2021/03/14 08:30:56;;;;;;;1999.90;999.90;;;6.70;99.90;;;;;;4992084;28;19930;-69
2021/03/14 08:33:31;;;;;;;1999.90;999.90;;;6.80;99.90;;;;;;4998628;28;20526;-68
2021/03/14 08:36:03;;;;;;;1999.90;999.90;;;6.80;99.90;;;;;;4994406;28;20057;-68
2021/03/14 08:38:52;;;;;;;1999.90;999.90;;;6.80;99.90;;;;;;5007412;28;20057;-69
2021/03/14 08:41:19;;;;;;;1999.90;999.90;;;6.80;99.90;;;;;;5000267;28;20054;-69
2021/03/14 08:43:47;;;;;;;1999.90;999.90;;;6.90;99.90;;;;;;5004436;28;20060;-69
2021/03/14 08:46:14;;;;;;;1999.90;999.90;;;6.90;99.90;;;;;;5001126;28;20084;-69
2021/03/14 08:48:40;;;;;;;1999.90;999.90;;;7.00;99.90;;;;;;5003886;28;20076;-69
2021/03/14 08:51:08;;;;;;;1999.90;999.90;;;7.00;99.90;;;;;;5008414;28;20060;-69
2021/03/14 08:53:36;;;;;;;1999.90;999.90;;;7.10;99.90;;;;;;5096322;27;20095;-69
2021/03/14 08:56:03;;;;;;;1999.90;999.90;;;7.10;99.90;;;;;;5002917;28;20090;-69
2021/03/14 08:58:30;;;;;;;1999.90;999.90;;;7.10;99.90;;;;;;5004239;28;20059;-69
2021/03/14 09:01:10;;;;;;;1999.90;999.90;;;7.10;99.90;;;;;;4999161;28;20059;-70
2021/03/14 09:03:44;;;;;;;1999.90;999.90;;;7.20;99.90;;;;;;5000828;28;20049;-69
2021/03/14 09:06:24;;;;;;;1999.90;999.90;;;7.20;99.90;;;;;;4999383;28;20103;-70
2021/03/14 09:09:02;;;;;;;1999.90;999.90;;;7.20;99.90;;;;;;4993727;28;20061;-69
2021/03/14 09:11:37;;;;;;;1999.90;999.90;;;7.20;99.90;;;;;;4991081;28;20487;-69
2021/03/14 09:14:32;;;;;;;1999.90;999.90;;;7.30;99.90;;;;;;4995479;28;20072;-70
2021/03/14 09:17:06;;;;;;;1999.90;999.90;;;7.30;99.90;;;;;;4995287;28;21335;-70
2021/03/14 09:19:39;;;;;;;1999.90;999.90;;;7.40;99.90;;;;;;4997543;28;20100;-69
2021/03/14 09:22:17;;;;;;;1999.90;999.90;;;7.40;99.90;;;;;;5098643;27;21477;-69
2021/03/14 09:25:04;;;;;;;1999.90;999.90;;;7.50;99.90;;;;;;4996742;28;20442;-69
2021/03/14 09:27:32;;;;;;;1999.90;999.90;;;7.50;99.90;;;;;;4997609;28;20405;-69
2021/03/14 09:30:00;;;;;;;1999.90;999.90;;;7.50;99.90;;;;;;4999027;28;20065;-69
2021/03/14 09:32:36;;;;;;;1999.90;999.90;;;7.60;99.90;;;;;;4998598;28;20441;-69
2021/03/14 09:35:11;;;;;;;1999.90;999.90;;;7.60;99.90;;;;;;4997244;28;20083;-69
2021/03/14 09:37:38;;;;;;;1999.90;999.90;;;7.70;99.90;;;;;;4993793;28;20049;-70
2021/03/14 09:40:06;;;;;;;1999.90;999.90;;;7.80;99.90;;;;;;4993149;28;20050;-69
2021/03/14 09:42:34;;;;;;;1999.90;999.90;;;7.80;99.90;;;;;;4995248;28;20053;-69
2021/03/14 09:45:16;;;;;;;1999.90;999.90;;;7.90;99.90;;;;;;4995933;28;20054;-69
2021/03/14 09:48:06;;;;;;;1999.90;999.90;;;7.90;99.90;;;;;;4994063;28;20054;-70
2021/03/14 09:50:41;;;;;;;1999.90;999.90;;;7.90;99.90;;;;;;5002542;28;20368;-69
2021/03/14 09:53:09;;;;;;;1999.90;999.90;;;8.10;99.90;;;;;;4990522;28;20053;-69
2021/03/14 09:55:39;;;;;;;1999.90;999.90;;;8.20;99.90;;;;;;5090617;27;20053;-69
2021/03/14 09:58:21;;;;;;;1999.90;999.90;;;8.20;99.90;;;;;;4993863;28;20077;-69
2021/03/14 10:00:49;;;;;;;1999.90;999.90;;;8.20;99.90;;;;;;5090495;27;20524;-69
2021/03/14 10:03:24;;;;;;;1999.90;999.90;;;8.20;99.90;;;;;;4989448;28;20143;-69
2021/03/14 10:05:52;;;;;;;1999.90;999.90;;;8.10;99.90;;;;;;4993900;28;21326;-69
2021/03/14 10:08:20;;;;;;;1999.90;999.90;;;7.80;99.90;;;;;;4995058;28;20132;-69
2021/03/14 10:10:51;;;;;;;1999.90;999.90;;;7.60;99.90;;;;;;4995476;28;20093;-69
2021/03/14 10:13:23;;;;;;;1999.90;999.90;;;7.50;99.90;;;;;;4995052;28;20054;-69
2021/03/14 10:15:54;;;;;;;1999.90;999.90;;;7.30;99.90;;;;;;4996829;28;20054;-69
2021/03/14 10:18:22;;;;;;;1999.90;999.90;;;7.10;99.90;;;;;;4994705;28;20066;-69
2021/03/14 10:20:49;;;;;;;1999.90;999.90;;;6.90;99.90;;;;;;4991628;28;20125;-68
2021/03/14 10:23:22;;;;;;;1999.90;999.90;;;6.80;99.90;;;;;;4989301;28;20045;-69
2021/03/14 10:25:48;;;;;;;1999.90;999.90;;;6.70;99.90;;;;;;4992088;28;20054;-69
2021/03/14 10:28:17;;;;;;;1999.90;999.90;;;6.70;99.90;;;;;;4989742;28;20148;-69
2021/03/14 10:30:45;;;;;;;1999.90;999.90;;;6.70;99.90;;;;;;4989019;28;20676;-69
2021/03/14 10:33:27;;;;;;;1999.90;999.90;;;6.80;99.90;;;;;;4987395;28;20053;-69
2021/03/14 10:36:05;;;;;;;1999.90;999.90;;;7.00;99.90;;;;;;4993088;28;20491;-69
2021/03/14 10:38:46;;;;;;;1999.90;999.90;;;7.40;99.90;;;;;;4983158;28;20052;-69
2021/03/14 10:41:16;;;;;;;1999.90;999.90;;;7.60;99.90;;;;;;4978930;28;20138;-69
2021/03/14 10:43:55;;;;;;;1999.90;999.90;;;7.70;99.90;;;;;;4979936;28;20470;-69
2021/03/14 10:46:40;;;;;;;1999.90;999.90;;;7.80;99.90;;;;;;4978903;28;20054;-69
2021/03/14 10:49:15;;;;;;;1999.90;999.90;;;7.90;99.90;;;;;;4980825;28;20130;-69
2021/03/14 10:51:43;;;;;;;1999.90;999.90;;;8.00;99.90;;;;;;4983156;28;20108;-69
2021/03/14 10:54:11;;;;;;;1999.90;999.90;;;8.10;99.90;;;;;;4992116;28;20137;-69
2021/03/14 10:56:42;;;;;;;1999.90;999.90;;;8.10;99.90;;;;;;4992270;28;20384;-69
2021/03/14 10:59:24;;;;;;;1999.90;999.90;;;8.10;99.90;;;;;;5086415;27;20042;-69
2021/03/14 11:01:58;;;;;;;1999.90;999.90;;;8.10;99.90;;;;;;4992604;28;20437;-69
2021/03/14 11:04:29;;;;;;;1999.90;999.90;;;8.20;99.90;;;;;;5010935;28;20503;-69
2021/03/14 11:06:57;;;;;;;1999.90;999.90;;;8.20;99.90;;;;;;5006802;28;20174;-69
2021/03/14 11:09:26;;;;;;;1999.90;999.90;;;8.20;99.90;;;;;;5008712;28;20524;-69
2021/03/14 11:11:53;;;;;;;1999.90;999.90;;;8.20;99.90;;;;;;5007201;28;20048;-69
2021/03/14 11:14:29;;;;;;;1999.90;999.90;;;8.20;99.90;;;;;;5004139;28;20046;-69
2021/03/14 11:17:18;;;;;;;1999.90;999.90;;;8.20;99.90;;;;;;4999582;28;20078;-69
2021/03/14 11:19:47;;;;;;;1999.90;999.90;;;8.20;99.90;;;;;;5005903;28;20053;-69
2021/03/14 11:22:19;;;;;;;1999.90;999.90;;;8.30;99.90;;;;;;5008744;28;20079;-69
2021/03/14 11:24:47;;;;;;;1999.90;999.90;;;8.30;99.90;;;;;;5009071;28;20313;-69
2021/03/14 11:27:13;;;;;;;1999.90;999.90;;;8.20;99.90;;;;;;5006329;28;20456;-69
2021/03/14 11:29:41;;;;;;;1999.90;999.90;;;8.20;99.90;;;;;;5000744;28;20054;-69
2021/03/14 11:32:10;;;;;;;1999.90;999.90;;;8.20;99.90;;;;;;4999805;28;20077;-69
2021/03/14 11:34:38;;;;;;;1999.90;999.90;;;8.20;99.90;;;;;;5005175;28;20300;-69
2021/03/14 11:37:09;;;;;;;1999.90;999.90;;;8.20;99.90;;;;;;5006383;28;20140;-69
2021/03/14 11:39:36;;;;;;;1999.90;999.90;;;8.20;99.90;;;;;;5007361;28;20050;-70
2021/03/14 11:42:04;;;;;;;1999.90;999.90;;;8.30;99.90;;;;;;5001088;28;20229;-69
2021/03/14 11:44:30;;;;;;;1999.90;999.90;;;8.30;99.90;;;;;;5006481;28;20046;-69
2021/03/14 11:46:56;;;;;;;341.08;317.63;;;8.30;99.90;;;;;;5006033;28;20126;-69
2021/03/14 11:49:24;;;;;;;477.73;449.30;;;8.30;99.90;;;;;;5004220;28;20166;-70
2021/03/14 11:51:51;;;;;;;39.60;37.30;;;8.30;99.90;;;;;;5004396;28;20058;-70
2021/03/14 11:54:18;;;;;;;29.63;28.10;;;8.30;99.90;;;;;;5001775;28;20089;-70
2021/03/14 11:56:50;;;;;;;115.20;109.32;;;8.30;99.90;;;;;;5001229;28;20122;-69
2021/03/14 11:59:17;;;;;;;160.65;152.85;;;8.30;99.90;;;;;;5003123;28;20041;-69
2021/03/14 12:01:43;;;;;;;412.58;389.98;;;8.40;99.90;;;;;;5002644;28;20138;-70
2021/03/14 12:04:10;;;;;;;442.33;419.35;;;8.50;99.90;;;;;;5000703;28;20125;-70
2021/03/14 12:06:36;;;;;;;675.90;634.03;;;8.60;99.90;;;;;;5003406;28;20045;-69
2021/03/14 12:09:04;;;;;;;431.98;408.55;;;8.60;99.90;;;;;;5002800;28;20069;-70
2021/03/14 12:11:30;;;;;;;421.95;398.23;;;8.60;99.90;;;;;;5003162;28;20490;-69
2021/03/14 12:13:57;;;;;;;237.05;225.50;;;8.60;99.90;;;;;;5004457;28;20057;-69
2021/03/14 12:16:23;;;;;;;173.93;165.70;;;8.40;99.90;;;;;;5002321;28;20060;-69
2021/03/14 12:18:50;;;;;;;182.13;173.02;;;8.30;99.90;;;;;;5003898;28;20061;-69
2021/03/14 12:21:16;;;;;;;202.40;191.73;;;8.30;99.90;;;;;;5003161;28;20512;-70
2021/03/14 12:23:42;;;;;;;151.52;143.18;;;8.50;99.90;;;;;;5005653;28;20077;-69
2021/03/14 12:26:08;;;;;;;101.85;96.88;;;8.50;99.90;;;;;;5002449;28;20093;-69
2021/03/14 12:28:35;;;;;;;129.88;123.30;;;8.50;99.90;;;;;;5004206;28;20137;-69
2021/03/14 12:31:01;;;;;;;93.80;89.50;;;8.50;99.90;;;;;;5000680;28;20428;-69
2021/03/14 12:33:27;;;;;;;75.32;71.50;;;8.70;99.90;;;;;;5099241;27;20049;-70
2021/03/14 12:35:54;;;;;;;100.65;95.45;;;8.80;99.90;;;;;;5003420;28;20046;-70
2021/03/14 12:38:20;;;;;;;98.78;93.75;;;8.90;99.90;;;;;;5002936;28;20408;-69